Ship Status Report: callsign DIANEG

sailwx.info

Track history (hours):
 
Tides and Currents Weather Stations Pressure Air Temp Water Temp Dewpoint Dewpoint Depression Visibility Wind Speed Wind Dir Waves Ship Positions

Callsign DIANEG (name unknown)

Last reported at 2017-Aug-17 05:39 UTC. Time now 2017-Sep-22 08:24 UTC.
Position N 33°31' W 119°10'.
Warning: this ship's position is 36 days out of date.

Date/timePositionNaut miles runAvg speedWind from/ knotsBaromVisibWave heightAir tempDewpointWater temp
2017-Aug-17 05:39N 33°31' W 119°10'1 8.7
2017-Aug-17 05:31N 33°32' W 119°10'4 8.9
2017-Aug-17 05:01N 33°37' W 119°10'5 9.2
2017-Aug-17 04:31N 33°41' W 119°11'5 9.0
2017-Aug-17 04:01N 33°46' W 119°11'5 9.4
2017-Aug-17 03:31N 33°51' W 119°11'6 9.7
2017-Aug-17 02:55N 33°56' W 119°11'4 9.6
2017-Aug-17 02:30N 34°00' W 119°12'5 9.6
2017-Aug-17 02:00N 34°05' W 119°13'  
2017-Aug-14 04:39N 34°09' W 119°13'0 0.0
2017-Aug-14 04:30N 34°09' W 119°13'4 7.7
2017-Aug-14 04:00N 34°06' W 119°16'5 9.6
2017-Aug-14 03:30N 34°04' W 119°21'5 9.8
2017-Aug-14 03:00N 34°03' W 119°27'5 9.8
2017-Aug-14 02:30N 34°00' W 119°32'5 9.4
2017-Aug-14 02:00N 33°57' W 119°36'5 9.6
2017-Aug-14 01:30N 33°53' W 119°40'5 9.9
2017-Aug-14 01:00N 33°49' W 119°43'5 9.6
2017-Aug-14 00:30N 33°46' W 119°48'5 9.5
2017-Aug-14 00:00N 33°43' W 119°52'5 9.2
2017-Aug-13 23:30N 33°41' W 119°57'5 9.4
2017-Aug-13 23:00N 33°38' W 120°01'5 9.2
2017-Aug-13 22:30N 33°35' W 120°06'510.1
2017-Aug-13 22:00N 33°33' W 120°11'510.2
2017-Aug-13 21:30N 33°30' W 120°16'5 9.9
2017-Aug-13 21:00N 33°27' W 120°21'510.0
2017-Aug-13 20:30N 33°24' W 120°26'5 9.6
2017-Aug-13 20:00N 33°21' W 120°30'5 9.4
2017-Aug-13 19:30N 33°18' W 120°34'5 9.6
2017-Aug-13 19:00N 33°15' W 120°39'5 9.6
2017-Aug-13 18:30N 33°12' W 120°43'8 9.2
2017-Aug-13 17:40N 33°07' W 120°50'6 9.2
2017-Aug-13 17:00N 33°03' W 120°56'8 9.1
2017-Aug-13 16:09N 32°59' W 121°04'4 9.1
2017-Aug-13 15:43N 32°57' W 121°08'2 9.0
2017-Aug-13 15:29N 32°55' W 121°10'8 9.1
2017-Aug-13 14:37N 32°51' W 121°17'2 9.3
2017-Aug-13 14:25N 32°50' W 121°19'2 4.4
2017-Aug-13 13:59N 32°50' W 121°22'1 1.3
2017-Aug-13 13:26N 32°51' W 121°22'0 0.6
2017-Aug-13 12:53N 32°51' W 121°22'0 0.8
2017-Aug-13 12:15N 32°51' W 121°22'1 2.3
2017-Aug-13 11:57N 32°51' W 121°23'1 1.4
2017-Aug-13 11:30N 32°51' W 121°23'1 1.1
2017-Aug-13 10:53N 32°51' W 121°22'44 3.5
2017-Aug-12 22:20N 32°09' W 121°07'10 9.5
2017-Aug-12 21:18N 32°11' W 120°55'7 9.0
2017-Aug-12 20:29N 32°13' W 120°47'10 9.1
2017-Aug-12 19:23N 32°16' W 120°36'9 9.4
2017-Aug-12 18:25N 32°20' W 120°25'4 9.2
2017-Aug-12 18:00N 32°21' W 120°21'5 9.2
2017-Aug-12 17:30N 32°22' W 120°16'2 3.7
2017-Aug-12 16:58N 32°24' W 120°18'0 0.8
2017-Aug-12 16:22N 32°24' W 120°18'0 0.8
2017-Aug-12 16:00N 32°24' W 120°18'1 1.5
2017-Aug-12 15:30N 32°24' W 120°18'1 1.6
2017-Aug-12 14:58N 32°24' W 120°18'1 1.6
2017-Aug-12 14:14N 32°24' W 120°17'2 9.0
2017-Aug-12 14:00N 32°25' W 120°15'4 7.5
2017-Aug-12 13:30N 32°24' W 120°11'4 8.5
2017-Aug-12 13:00N 32°24' W 120°06'4 8.4
2017-Aug-12 12:30N 32°24' W 120°01'4 8.7
2017-Aug-12 12:00N 32°23' W 119°56'4 8.7
2017-Aug-12 11:30N 32°22' W 119°51'4 8.6
2017-Aug-12 11:00N 32°22' W 119°45'4 8.5
2017-Aug-12 10:30N 32°22' W 119°40'4 8.4
2017-Aug-12 10:00N 32°21' W 119°35'4 8.6
2017-Aug-12 09:30N 32°21' W 119°30'4 8.6
2017-Aug-12 09:00N 32°21' W 119°25'6 8.6
2017-Aug-12 08:19N 32°20' W 119°18'3 8.7
2017-Aug-12 08:00N 32°20' W 119°15'4 8.7
2017-Aug-12 07:30N 32°20' W 119°10'4 8.8
2017-Aug-12 07:00N 32°20' W 119°05'4 8.7
2017-Aug-12 06:30N 32°20' W 118°60'4 8.5
2017-Aug-12 06:01N 32°23' W 118°56'5 9.1
2017-Aug-12 05:30N 32°26' W 118°52'5 9.0
2017-Aug-12 05:00N 32°27' W 118°47'4 8.9
2017-Aug-12 04:30N 32°28' W 118°42'4 8.6
2017-Aug-12 04:00N 32°28' W 118°37'4 8.8
2017-Aug-12 03:30N 32°28' W 118°32'5 9.0
2017-Aug-12 02:59N 32°29' W 118°26'4 8.9
2017-Aug-12 02:30N 32°29' W 118°21'4 8.5
2017-Aug-12 02:00N 32°30' W 118°16'4 8.5
2017-Aug-12 01:30N 32°30' W 118°11'4 8.2
2017-Aug-12 01:00N 32°30' W 118°06'3 6.7
2017-Aug-12 00:31N 32°31' W 118°02'3 6.0
2017-Aug-12 00:00N 32°30' W 117°59'4 8.6
2017-Aug-11 23:30N 32°30' W 117°54'4 8.1
2017-Aug-11 23:00N 32°31' W 117°49'4 8.0
2017-Aug-11 22:30N 32°33' W 117°45'4 7.8
2017-Aug-11 22:00N 32°35' W 117°41'4 8.9
2017-Aug-11 21:30N 32°36' W 117°36'5 9.4
2017-Aug-11 21:00N 32°37' W 117°30'4 8.8
2017-Aug-11 20:30N 32°37' W 117°25'5 8.8
2017-Aug-11 19:59N 32°38' W 117°20'4 8.7
2017-Aug-11 19:30N 32°39' W 117°15'4 7.4
2017-Aug-11 19:00N 32°42' W 117°14'0 0.0
2017-Aug-11 18:30N 32°42' W 117°14'0 0.0
2017-Aug-11 18:00N 32°42' W 117°14'0 0.0
2017-Aug-11 17:30N 32°42' W 117°14'0 0.0
2017-Aug-11 17:00N 32°42' W 117°14'0 0.0
2017-Aug-11 16:30N 32°42' W 117°14'0 0.0
2017-Aug-11 16:00N 32°42' W 117°14'0 0.0
2017-Aug-11 15:30N 32°42' W 117°14'0 0.0
2017-Aug-11 15:00N 32°42' W 117°14'1 1.0
2017-Aug-11 14:00N 32°43' W 117°13'2 3.1
2017-Aug-11 13:30N 32°43' W 117°11'0 0.0
2017-Aug-11 12:58N 32°43' W 117°11'0 0.0
2017-Aug-11 12:30N 32°43' W 117°11'0 0.0
2017-Aug-11 12:00N 32°43' W 117°11'0 0.0
2017-Aug-11 11:06N 32°43' W 117°11'0 0.0
2017-Aug-11 11:00N 32°43' W 117°11'0 0.0
2017-Aug-11 10:29N 32°43' W 117°11'0 0.1
2017-Aug-11 10:00N 32°43' W 117°11'0 0.0
2017-Aug-11 09:24N 32°43' W 117°11'0 0.0
2017-Aug-11 09:00N 32°43' W 117°11'0 0.0
2017-Aug-11 08:26N 32°43' W 117°11'0 0.1
2017-Aug-11 07:39N 32°43' W 117°11'1 4.9
2017-Aug-11 07:30N 32°43' W 117°12'4 8.0
2017-Aug-11 07:00N 32°39' W 117°14'3 6.9
2017-Aug-11 06:30N 32°40' W 117°18'5 9.4
2017-Aug-11 06:00N 32°42' W 117°22'5 9.3
2017-Aug-11 05:30N 32°46' W 117°26'5 9.9
2017-Aug-11 05:00N 32°50' W 117°29'510.0
2017-Aug-11 04:30N 32°54' W 117°33'510.4
2017-Aug-11 04:00N 32°58' W 117°37'510.3
2017-Aug-11 03:30N 33°01' W 117°42'45 4.6
2017-Aug-10 17:43N 33°11' W 118°34'3 9.1
2017-Aug-10 17:21N 33°09' W 118°37'4 8.2
2017-Aug-10 16:53N 33°05' W 118°39'4 9.2
2017-Aug-10 16:30N 33°03' W 118°43'5 9.6
2017-Aug-10 16:00N 33°00' W 118°47'5 9.7
2017-Aug-10 15:30N 32°57' W 118°52'5 9.4
2017-Aug-10 15:00N 32°54' W 118°56'6 9.2
2017-Aug-10 14:24N 32°51' W 119°02'13 9.2
2017-Aug-10 13:00N 32°44' W 119°14'5 9.2
2017-Aug-10 12:30N 32°41' W 119°19'5 9.2
2017-Aug-10 11:57N 32°38' W 119°24'4 9.0
2017-Aug-10 11:30N 32°37' W 119°28'5 8.8
2017-Aug-10 10:55N 32°35' W 119°34'4 8.9
2017-Aug-10 10:30N 32°34' W 119°38'4 8.9
2017-Aug-10 10:01N 32°33' W 119°43'5 9.0
2017-Aug-10 09:30N 32°32' W 119°48'4 8.9
2017-Aug-10 09:00N 32°30' W 119°53'4 8.6
2017-Aug-10 08:31N 32°29' W 119°58'5 8.8
2017-Aug-10 07:58N 32°28' W 120°03'4 9.0
2017-Aug-10 07:30N 32°26' W 120°08'5 9.1
2017-Aug-10 07:00N 32°24' W 120°13'4 7.8
2017-Aug-10 06:28N 32°24' W 120°18'0 0.8
2017-Aug-10 05:54N 32°24' W 120°18'1 1.4
2017-Aug-10 05:30N 32°24' W 120°18'0 0.6
2017-Aug-10 04:49N 32°23' W 120°18'0 0.7
2017-Aug-10 04:30N 32°24' W 120°18'2 3.6
2017-Aug-10 03:55N 32°22' W 120°19'8 8.0
2017-Aug-10 02:58N 32°18' W 120°27'4 8.6
2017-Aug-10 02:29N 32°16' W 120°31'5 8.5
2017-Aug-10 01:52N 32°15' W 120°37'4 8.6
2017-Aug-10 01:27N 32°14' W 120°41'4 8.3
2017-Aug-10 01:00N 32°13' W 120°46'4 8.7
2017-Aug-10 00:30N 32°12' W 120°51'4 8.6
2017-Aug-10 00:00N 32°11' W 120°56'8 8.6
2017-Aug-09 23:03N 32°09' W 121°05'1 8.6
2017-Aug-09 22:59N 32°09' W 121°06'4 8.6
2017-Aug-09 22:30N 32°08' W 121°10'8 6.7
2017-Aug-09 21:19N 32°08' W 121°20'1 1.6
2017-Aug-09 20:54N 32°07' W 121°20'44 6.2
2017-Aug-09 13:52N 32°51' W 121°23'1 2.4
2017-Aug-09 13:28N 32°50' W 121°22'1 1.3
2017-Aug-09 12:41N 32°51' W 121°23'0 0.1
2017-Aug-09 06:14N 32°51' W 121°22'1 1.4
2017-Aug-09 05:45N 32°51' W 121°23'8 4.5
2017-Aug-09 04:04N 32°55' W 121°15'2 7.3
2017-Aug-09 03:49N 32°56' W 121°13'11 2.9
2017-Aug-09 00:03N 32°53' W 121°00'0 0.4
2017-Aug-08 23:41N 32°53' W 121°00'25 7.2
2017-Aug-08 20:13N 33°17' W 120°54'2 9.8
2017-Aug-08 20:00N 33°20' W 120°54'5 9.7
2017-Aug-08 19:29N 33°25' W 120°53'4 7.6
2017-Aug-08 18:59N 33°28' W 120°53'2 3.9
2017-Aug-08 18:30N 33°30' W 120°54'0 0.6
2017-Aug-08 18:00N 33°30' W 120°54'0 0.6
2017-Aug-08 17:30N 33°30' W 120°54'1 1.1
2017-Aug-08 17:00N 33°30' W 120°54'1 1.5
2017-Aug-08 16:30N 33°30' W 120°54'1 1.5
2017-Aug-08 16:00N 33°30' W 120°54'1 1.6
2017-Aug-08 15:30N 33°31' W 120°54'1 2.0
2017-Aug-08 15:00N 33°30' W 120°53'0 1.0
2017-Aug-08 14:30N 33°30' W 120°53'3 6.4
2017-Aug-08 14:00N 33°28' W 120°50'3 6.5
2017-Aug-08 13:30N 33°26' W 120°47'3 6.5
2017-Aug-08 13:00N 33°24' W 120°44'3 6.6
2017-Aug-08 12:31N 33°22' W 120°41'4 6.3
2017-Aug-08 11:57N 33°19' W 120°38'3 5.5
2017-Aug-08 11:23N 33°17' W 120°35'2 5.3
2017-Aug-08 11:00N 33°16' W 120°33'3 5.3
2017-Aug-08 10:29N 33°15' W 120°30'3 4.9
2017-Aug-08 09:52N 33°15' W 120°27'3 7.2
2017-Aug-08 09:30N 33°17' W 120°24'4 7.6
2017-Aug-08 09:00N 33°20' W 120°21'4 7.1
2017-Aug-08 08:31N 33°22' W 120°19'4 8.9
2017-Aug-08 08:00N 33°27' W 120°17'5 9.1
2017-Aug-08 07:30N 33°31' W 120°16'4 8.8
2017-Aug-08 07:00N 33°35' W 120°15'4 9.0
2017-Aug-08 06:30N 33°40' W 120°15'4 8.5
2017-Aug-08 06:00N 33°44' W 120°14'4 8.9
2017-Aug-08 05:30N 33°49' W 120°15'3 6.5
2017-Aug-08 05:00N 33°52' W 120°14'4 7.3
2017-Aug-08 04:30N 33°52' W 120°10'7 9.5
2017-Aug-08 03:47N 33°53' W 120°02'3 9.9
2017-Aug-08 03:30N 33°53' W 119°58'5 9.6
2017-Aug-08 03:00N 33°53' W 119°53'4 7.5
2017-Aug-08 02:29N 33°54' W 119°48'610.1
2017-Aug-08 01:56N 33°56' W 119°42'8 9.6
2017-Aug-08 01:04N 33°59' W 119°33'1 9.1
2017-Aug-08 01:00N 33°59' W 119°32'4 9.1
2017-Aug-08 00:30N 34°02' W 119°27'5 9.1
2017-Aug-08 00:00N 34°04' W 119°22'5 9.2
2017-Aug-07 23:30N 34°06' W 119°18'  
Track history (hours):
 
Tides and Currents Weather Stations Pressure Air Temp Water Temp Dewpoint Dewpoint Depression Visibility Wind Speed Wind Dir Waves Ship Positions

Callsign DIANEG (name unknown)

Last reported at 2017-Aug-17 05:39 UTC. Time now 2017-Sep-22 08:24 UTC.
Position N 33°31' W 119°10'.
Warning: this ship's position is 36 days out of date.

Date/timePositionNaut miles runAvg speedWind from/ knotsBaromVisibWave heightAir tempDewpointWater temp
2017-Aug-17 05:39N 33°31' W 119°10'1 8.7
2017-Aug-17 05:31N 33°32' W 119°10'4 8.9
2017-Aug-17 05:01N 33°37' W 119°10'5 9.2
2017-Aug-17 04:31N 33°41' W 119°11'5 9.0
2017-Aug-17 04:01N 33°46' W 119°11'5 9.4
2017-Aug-17 03:31N 33°51' W 119°11'6 9.7
2017-Aug-17 02:55N 33°56' W 119°11'4 9.6
2017-Aug-17 02:30N 34°00' W 119°12'5 9.6
2017-Aug-17 02:00N 34°05' W 119°13'  
2017-Aug-14 04:39N 34°09' W 119°13'0 0.0
2017-Aug-14 04:30N 34°09' W 119°13'4 7.7
2017-Aug-14 04:00N 34°06' W 119°16'5 9.6
2017-Aug-14 03:30N 34°04' W 119°21'5 9.8
2017-Aug-14 03:00N 34°03' W 119°27'5 9.8
2017-Aug-14 02:30N 34°00' W 119°32'5 9.4
2017-Aug-14 02:00N 33°57' W 119°36'5 9.6
2017-Aug-14 01:30N 33°53' W 119°40'5 9.9
2017-Aug-14 01:00N 33°49' W 119°43'5 9.6
2017-Aug-14 00:30N 33°46' W 119°48'5 9.5
2017-Aug-14 00:00N 33°43' W 119°52'5 9.2
2017-Aug-13 23:30N 33°41' W 119°57'5 9.4
2017-Aug-13 23:00N 33°38' W 120°01'5 9.2
2017-Aug-13 22:30N 33°35' W 120°06'510.1
2017-Aug-13 22:00N 33°33' W 120°11'510.2
2017-Aug-13 21:30N 33°30' W 120°16'5 9.9
2017-Aug-13 21:00N 33°27' W 120°21'510.0
2017-Aug-13 20:30N 33°24' W 120°26'5 9.6
2017-Aug-13 20:00N 33°21' W 120°30'5 9.4
2017-Aug-13 19:30N 33°18' W 120°34'5 9.6
2017-Aug-13 19:00N 33°15' W 120°39'5 9.6
2017-Aug-13 18:30N 33°12' W 120°43'8 9.2
2017-Aug-13 17:40N 33°07' W 120°50'6 9.2
2017-Aug-13 17:00N 33°03' W 120°56'8 9.1
2017-Aug-13 16:09N 32°59' W 121°04'4 9.1
2017-Aug-13 15:43N 32°57' W 121°08'2 9.0
2017-Aug-13 15:29N 32°55' W 121°10'8 9.1
2017-Aug-13 14:37N 32°51' W 121°17'2 9.3
2017-Aug-13 14:25N 32°50' W 121°19'2 4.4
2017-Aug-13 13:59N 32°50' W 121°22'1 1.3
2017-Aug-13 13:26N 32°51' W 121°22'0 0.6
2017-Aug-13 12:53N 32°51' W 121°22'0 0.8
2017-Aug-13 12:15N 32°51' W 121°22'1 2.3
2017-Aug-13 11:57N 32°51' W 121°23'1 1.4
2017-Aug-13 11:30N 32°51' W 121°23'1 1.1
2017-Aug-13 10:53N 32°51' W 121°22'44 3.5
2017-Aug-12 22:20N 32°09' W 121°07'10 9.5
2017-Aug-12 21:18N 32°11' W 120°55'7 9.0
2017-Aug-12 20:29N 32°13' W 120°47'10 9.1
2017-Aug-12 19:23N 32°16' W 120°36'9 9.4
2017-Aug-12 18:25N 32°20' W 120°25'4 9.2
2017-Aug-12 18:00N 32°21' W 120°21'5 9.2
2017-Aug-12 17:30N 32°22' W 120°16'2 3.7
2017-Aug-12 16:58N 32°24' W 120°18'0 0.8
2017-Aug-12 16:22N 32°24' W 120°18'0 0.8
2017-Aug-12 16:00N 32°24' W 120°18'1 1.5
2017-Aug-12 15:30N 32°24' W 120°18'1 1.6
2017-Aug-12 14:58N 32°24' W 120°18'1 1.6
2017-Aug-12 14:14N 32°24' W 120°17'2 9.0
2017-Aug-12 14:00N 32°25' W 120°15'4 7.5
2017-Aug-12 13:30N 32°24' W 120°11'4 8.5
2017-Aug-12 13:00N 32°24' W 120°06'4 8.4
2017-Aug-12 12:30N 32°24' W 120°01'4 8.7
2017-Aug-12 12:00N 32°23' W 119°56'4 8.7
2017-Aug-12 11:30N 32°22' W 119°51'4 8.6
2017-Aug-12 11:00N 32°22' W 119°45'4 8.5
2017-Aug-12 10:30N 32°22' W 119°40'4 8.4
2017-Aug-12 10:00N 32°21' W 119°35'4 8.6
2017-Aug-12 09:30N 32°21' W 119°30'4 8.6
2017-Aug-12 09:00N 32°21' W 119°25'6 8.6
2017-Aug-12 08:19N 32°20' W 119°18'3 8.7
2017-Aug-12 08:00N 32°20' W 119°15'4 8.7
2017-Aug-12 07:30N 32°20' W 119°10'4 8.8
2017-Aug-12 07:00N 32°20' W 119°05'4 8.7
2017-Aug-12 06:30N 32°20' W 118°60'4 8.5
2017-Aug-12 06:01N 32°23' W 118°56'5 9.1
2017-Aug-12 05:30N 32°26' W 118°52'5 9.0
2017-Aug-12 05:00N 32°27' W 118°47'4 8.9
2017-Aug-12 04:30N 32°28' W 118°42'4 8.6
2017-Aug-12 04:00N 32°28' W 118°37'4 8.8
2017-Aug-12 03:30N 32°28' W 118°32'5 9.0
2017-Aug-12 02:59N 32°29' W 118°26'4 8.9
2017-Aug-12 02:30N 32°29' W 118°21'4 8.5
2017-Aug-12 02:00N 32°30' W 118°16'4 8.5
2017-Aug-12 01:30N 32°30' W 118°11'4 8.2
2017-Aug-12 01:00N 32°30' W 118°06'3 6.7
2017-Aug-12 00:31N 32°31' W 118°02'3 6.0
2017-Aug-12 00:00N 32°30' W 117°59'4 8.6
2017-Aug-11 23:30N 32°30' W 117°54'4 8.1
2017-Aug-11 23:00N 32°31' W 117°49'4 8.0
2017-Aug-11 22:30N 32°33' W 117°45'4 7.8
2017-Aug-11 22:00N 32°35' W 117°41'4 8.9
2017-Aug-11 21:30N 32°36' W 117°36'5 9.4
2017-Aug-11 21:00N 32°37' W 117°30'4 8.8
2017-Aug-11 20:30N 32°37' W 117°25'5 8.8
2017-Aug-11 19:59N 32°38' W 117°20'4 8.7
2017-Aug-11 19:30N 32°39' W 117°15'4 7.4
2017-Aug-11 19:00N 32°42' W 117°14'0 0.0
2017-Aug-11 18:30N 32°42' W 117°14'0 0.0
2017-Aug-11 18:00N 32°42' W 117°14'0 0.0
2017-Aug-11 17:30N 32°42' W 117°14'0 0.0
2017-Aug-11 17:00N 32°42' W 117°14'0 0.0
2017-Aug-11 16:30N 32°42' W 117°14'0 0.0
2017-Aug-11 16:00N 32°42' W 117°14'0 0.0
2017-Aug-11 15:30N 32°42' W 117°14'0 0.0
2017-Aug-11 15:00N 32°42' W 117°14'1 1.0
2017-Aug-11 14:00N 32°43' W 117°13'2 3.1
2017-Aug-11 13:30N 32°43' W 117°11'0 0.0
2017-Aug-11 12:58N 32°43' W 117°11'0 0.0
2017-Aug-11 12:30N 32°43' W 117°11'0 0.0
2017-Aug-11 12:00N 32°43' W 117°11'0 0.0
2017-Aug-11 11:06N 32°43' W 117°11'0 0.0
2017-Aug-11 11:00N 32°43' W 117°11'0 0.0
2017-Aug-11 10:29N 32°43' W 117°11'0 0.1
2017-Aug-11 10:00N 32°43' W 117°11'0 0.0
2017-Aug-11 09:24N 32°43' W 117°11'0 0.0
2017-Aug-11 09:00N 32°43' W 117°11'0 0.0
2017-Aug-11 08:26N 32°43' W 117°11'0 0.1
2017-Aug-11 07:39N 32°43' W 117°11'1 4.9
2017-Aug-11 07:30N 32°43' W 117°12'4 8.0
2017-Aug-11 07:00N 32°39' W 117°14'3 6.9
2017-Aug-11 06:30N 32°40' W 117°18'5 9.4
2017-Aug-11 06:00N 32°42' W 117°22'5 9.3
2017-Aug-11 05:30N 32°46' W 117°26'5 9.9
2017-Aug-11 05:00N 32°50' W 117°29'510.0
2017-Aug-11 04:30N 32°54' W 117°33'510.4
2017-Aug-11 04:00N 32°58' W 117°37'510.3
2017-Aug-11 03:30N 33°01' W 117°42'45 4.6
2017-Aug-10 17:43N 33°11' W 118°34'3 9.1
2017-Aug-10 17:21N 33°09' W 118°37'4 8.2
2017-Aug-10 16:53N 33°05' W 118°39'4 9.2
2017-Aug-10 16:30N 33°03' W 118°43'5 9.6
2017-Aug-10 16:00N 33°00' W 118°47'5 9.7
2017-Aug-10 15:30N 32°57' W 118°52'5 9.4
2017-Aug-10 15:00N 32°54' W 118°56'6 9.2
2017-Aug-10 14:24N 32°51' W 119°02'13 9.2
2017-Aug-10 13:00N 32°44' W 119°14'5 9.2
2017-Aug-10 12:30N 32°41' W 119°19'5 9.2
2017-Aug-10 11:57N 32°38' W 119°24'4 9.0
2017-Aug-10 11:30N 32°37' W 119°28'5 8.8
2017-Aug-10 10:55N 32°35' W 119°34'4 8.9
2017-Aug-10 10:30N 32°34' W 119°38'4 8.9
2017-Aug-10 10:01N 32°33' W 119°43'5 9.0
2017-Aug-10 09:30N 32°32' W 119°48'4 8.9
2017-Aug-10 09:00N 32°30' W 119°53'4 8.6
2017-Aug-10 08:31N 32°29' W 119°58'5 8.8
2017-Aug-10 07:58N 32°28' W 120°03'4 9.0
2017-Aug-10 07:30N 32°26' W 120°08'5 9.1
2017-Aug-10 07:00N 32°24' W 120°13'4 7.8
2017-Aug-10 06:28N 32°24' W 120°18'0 0.8
2017-Aug-10 05:54N 32°24' W 120°18'1 1.4
2017-Aug-10 05:30N 32°24' W 120°18'0 0.6
2017-Aug-10 04:49N 32°23' W 120°18'0 0.7
2017-Aug-10 04:30N 32°24' W 120°18'2 3.6
2017-Aug-10 03:55N 32°22' W 120°19'8 8.0
2017-Aug-10 02:58N 32°18' W 120°27'4 8.6
2017-Aug-10 02:29N 32°16' W 120°31'5 8.5
2017-Aug-10 01:52N 32°15' W 120°37'4 8.6
2017-Aug-10 01:27N 32°14' W 120°41'4 8.3
2017-Aug-10 01:00N 32°13' W 120°46'4 8.7
2017-Aug-10 00:30N 32°12' W 120°51'4 8.6
2017-Aug-10 00:00N 32°11' W 120°56'8 8.6
2017-Aug-09 23:03N 32°09' W 121°05'1 8.6
2017-Aug-09 22:59N 32°09' W 121°06'4 8.6
2017-Aug-09 22:30N 32°08' W 121°10'8 6.7
2017-Aug-09 21:19N 32°08' W 121°20'1 1.6
2017-Aug-09 20:54N 32°07' W 121°20'44 6.2
2017-Aug-09 13:52N 32°51' W 121°23'1 2.4
2017-Aug-09 13:28N 32°50' W 121°22'1 1.3
2017-Aug-09 12:41N 32°51' W 121°23'0 0.1
2017-Aug-09 06:14N 32°51' W 121°22'1 1.4
2017-Aug-09 05:45N 32°51' W 121°23'8 4.5
2017-Aug-09 04:04N 32°55' W 121°15'2 7.3
2017-Aug-09 03:49N 32°56' W 121°13'11 2.9
2017-Aug-09 00:03N 32°53' W 121°00'0 0.4
2017-Aug-08 23:41N 32°53' W 121°00'25 7.2
2017-Aug-08 20:13N 33°17' W 120°54'2 9.8
2017-Aug-08 20:00N 33°20' W 120°54'5 9.7
2017-Aug-08 19:29N 33°25' W 120°53'4 7.6
2017-Aug-08 18:59N 33°28' W 120°53'2 3.9
2017-Aug-08 18:30N 33°30' W 120°54'0 0.6
2017-Aug-08 18:00N 33°30' W 120°54'0 0.6
2017-Aug-08 17:30N 33°30' W 120°54'1 1.1
2017-Aug-08 17:00N 33°30' W 120°54'1 1.5
2017-Aug-08 16:30N 33°30' W 120°54'1 1.5
2017-Aug-08 16:00N 33°30' W 120°54'1 1.6
2017-Aug-08 15:30N 33°31' W 120°54'1 2.0
2017-Aug-08 15:00N 33°30' W 120°53'0 1.0
2017-Aug-08 14:30N 33°30' W 120°53'3 6.4
2017-Aug-08 14:00N 33°28' W 120°50'3 6.5
2017-Aug-08 13:30N 33°26' W 120°47'3 6.5
2017-Aug-08 13:00N 33°24' W 120°44'3 6.6
2017-Aug-08 12:31N 33°22' W 120°41'4 6.3
2017-Aug-08 11:57N 33°19' W 120°38'3 5.5
2017-Aug-08 11:23N 33°17' W 120°35'2 5.3
2017-Aug-08 11:00N 33°16' W 120°33'3 5.3
2017-Aug-08 10:29N 33°15' W 120°30'3 4.9
2017-Aug-08 09:52N 33°15' W 120°27'3 7.2
2017-Aug-08 09:30N 33°17' W 120°24'4 7.6
2017-Aug-08 09:00N 33°20' W 120°21'4 7.1
2017-Aug-08 08:31N 33°22' W 120°19'4 8.9
2017-Aug-08 08:00N 33°27' W 120°17'5 9.1
2017-Aug-08 07:30N 33°31' W 120°16'4 8.8
2017-Aug-08 07:00N 33°35' W 120°15'4 9.0
2017-Aug-08 06:30N 33°40' W 120°15'4 8.5
2017-Aug-08 06:00N 33°44' W 120°14'4 8.9
2017-Aug-08 05:30N 33°49' W 120°15'3 6.5
2017-Aug-08 05:00N 33°52' W 120°14'4 7.3
2017-Aug-08 04:30N 33°52' W 120°10'7 9.5
2017-Aug-08 03:47N 33°53' W 120°02'3 9.9
2017-Aug-08 03:30N 33°53' W 119°58'5 9.6
2017-Aug-08 03:00N 33°53' W 119°53'4 7.5
2017-Aug-08 02:29N 33°54' W 119°48'610.1
2017-Aug-08 01:56N 33°56' W 119°42'8 9.6
2017-Aug-08 01:04N 33°59' W 119°33'1 9.1
2017-Aug-08 01:00N 33°59' W 119°32'4 9.1
2017-Aug-08 00:30N 34°02' W 119°27'5 9.1
2017-Aug-08 00:00N 34°04' W 119°22'5 9.2
2017-Aug-07 23:30N 34°06' W 119°18'  

Dump ship's entire track history